Time;durP1;ratioP1;P1;durP2;ratioP2;P2;SDS_P1;SDS_P2;PMS_P1;PMS_P2;Temp;Humidity;BMP_temperature;BMP_pressure;BME280_temperature;BME280_humidity;BME280_pressure;Samples;Min_cycle;Max_cycle;Signal;HPM_P1;HPM_P2
2023/03/08 00:00:34;;;;;;;24.83;18.50;;;3.40;90.20;;;;;;5001042;28;20026;-74
2023/03/08 00:03:01;;;;;;;26.25;20.13;;;3.40;90.20;;;;;;4983304;28;20585;-74
2023/03/08 00:05:27;;;;;;;31.13;20.48;;;3.40;90.10;;;;;;5008202;28;20547;-74
2023/03/08 00:07:53;;;;;;;26.70;19.73;;;3.30;90.20;;;;;;4988598;28;20030;-74
2023/03/08 00:10:19;;;;;;;27.15;19.35;;;3.30;90.20;;;;;;5010876;28;20022;-74
2023/03/08 00:12:45;;;;;;;24.73;17.95;;;3.30;89.90;;;;;;4992717;28;20414;-75
2023/03/08 00:15:11;;;;;;;25.80;17.13;;;3.30;90.00;;;;;;5003614;28;20026;-75
2023/03/08 00:17:38;;;;;;;25.63;17.90;;;3.30;90.00;;;;;;4992979;28;20038;-74
2023/03/08 00:20:09;;;;;;;25.70;18.30;;;3.30;90.00;;;;;;4998008;28;20034;-74
2023/03/08 00:22:39;;;;;;;26.60;18.13;;;3.30;90.10;;;;;;4996224;28;20517;-74
2023/03/08 00:25:07;;;;;;;24.88;17.13;;;3.30;90.20;;;;;;5008865;28;20041;-74
2023/03/08 00:27:34;;;;;;;23.05;17.73;;;3.30;90.10;;;;;;4999519;28;20537;-73
2023/03/08 00:30:00;;;;;;;21.45;15.25;;;3.30;89.90;;;;;;5001043;28;20048;-73
2023/03/08 00:32:26;;;;;;;23.50;16.63;;;3.30;89.80;;;;;;5002939;28;20066;-74
2023/03/08 00:34:52;;;;;;;22.63;16.05;;;3.30;89.80;;;;;;4991763;28;20022;-73
2023/03/08 00:37:18;;;;;;;22.63;16.27;;;3.20;89.80;;;;;;4996947;28;20041;-75
2023/03/08 00:39:48;;;;;;;22.00;15.85;;;3.30;89.70;;;;;;5002495;28;20022;-74
2023/03/08 00:42:14;;;;;;;23.30;15.38;;;3.30;89.70;;;;;;5001447;28;20541;-75
2023/03/08 00:44:40;;;;;;;23.67;15.63;;;3.30;89.70;;;;;;4998764;28;20046;-74
2023/03/08 00:47:05;;;;;;;22.70;16.02;;;3.20;89.50;;;;;;5002277;28;20084;-74
2023/03/08 00:49:31;;;;;;;24.60;17.00;;;3.20;89.60;;;;;;5004343;28;20038;-74
2023/03/08 00:51:57;;;;;;;27.02;17.98;;;3.20;89.50;;;;;;5002742;28;20493;-74
2023/03/08 00:54:22;;;;;;;26.45;18.73;;;3.30;89.50;;;;;;5001640;28;20030;-74
2023/03/08 00:56:48;;;;;;;24.63;17.83;;;3.20;89.50;;;;;;4987613;28;20512;-74
2023/03/08 00:59:14;;;;;;;28.35;18.67;;;3.20;89.50;;;;;;4994690;28;20030;-75
2023/03/08 01:01:39;;;;;;;27.70;19.00;;;3.10;89.60;;;;;;4998665;28;20057;-75
2023/03/08 01:04:05;;;;;;;28.35;19.15;;;3.20;89.70;;;;;;5001992;28;20023;-75
2023/03/08 01:06:31;;;;;;;27.98;19.27;;;3.20;89.60;;;;;;4997796;28;20085;-74
2023/03/08 01:08:56;;;;;;;27.25;19.85;;;3.20;89.60;;;;;;5004682;28;20472;-74
2023/03/08 01:11:24;;;;;;;28.23;19.58;;;3.20;89.70;;;;;;5004008;28;20234;-74
2023/03/08 01:13:51;;;;;;;27.10;18.90;;;3.10;89.70;;;;;;5001840;28;20026;-75
2023/03/08 01:16:23;;;;;;;28.73;19.17;;;3.20;89.70;;;;;;5001583;28;20026;-75
2023/03/08 01:18:50;;;;;;;29.20;20.80;;;3.20;89.70;;;;;;4998341;28;20580;-74
2023/03/08 01:21:16;;;;;;;30.10;20.33;;;3.20;89.80;;;;;;4998036;28;20041;-75
2023/03/08 01:23:42;;;;;;;30.13;20.75;;;3.20;89.80;;;;;;4993755;28;20037;-75
2023/03/08 01:26:11;;;;;;;31.20;21.70;;;3.30;89.90;;;;;;4998915;28;20038;-74
2023/03/08 01:28:37;;;;;;;31.25;21.48;;;3.30;89.90;;;;;;4996945;28;20025;-75
2023/03/08 01:31:05;;;;;;;30.77;21.83;;;3.30;89.90;;;;;;4996679;28;20027;-74
2023/03/08 01:33:31;;;;;;;31.77;22.33;;;3.30;89.90;;;;;;4997603;28;20495;-75
2023/03/08 01:35:57;;;;;;;32.80;20.95;;;3.30;90.00;;;;;;4993251;28;20132;-74
2023/03/08 01:38:23;;;;;;;35.05;22.98;;;3.30;90.00;;;;;;5000652;28;21744;-74
2023/03/08 01:40:48;;;;;;;37.17;23.40;;;3.30;90.10;;;;;;5002305;28;21589;-74
2023/03/08 01:43:30;;;;;;;32.58;23.05;;;3.30;90.10;;;;;;5002713;28;20041;-75
2023/03/08 01:46:02;;;;;;;34.60;23.02;;;3.30;90.10;;;;;;5000560;28;20120;-75
2023/03/08 01:48:34;;;;;;;33.60;22.75;;;3.30;90.10;;;;;;4990762;28;20026;-73
2023/03/08 01:51:03;;;;;;;34.53;22.83;;;3.30;90.30;;;;;;5001568;28;20054;-73
2023/03/08 01:53:30;;;;;;;34.08;23.48;;;3.30;90.30;;;;;;4977978;28;20027;-73
2023/03/08 01:55:56;;;;;;;34.08;22.42;;;3.20;90.30;;;;;;4981858;28;20046;-73
2023/03/08 01:58:22;;;;;;;32.13;21.38;;;3.30;90.30;;;;;;4985789;28;20032;-73
2023/03/08 02:00:48;;;;;;;34.30;22.98;;;3.20;90.30;;;;;;4980957;28;20076;-73
2023/03/08 02:03:14;;;;;;;31.65;20.20;;;3.20;90.30;;;;;;4985260;28;20125;-73
2023/03/08 02:05:42;;;;;;;32.97;21.90;;;3.20;90.40;;;;;;4973141;28;20045;-74
2023/03/08 02:08:08;;;;;;;29.40;19.35;;;3.20;90.30;;;;;;4976864;28;20027;-73
2023/03/08 02:10:35;;;;;;;28.88;18.80;;;3.20;90.40;;;;;;4976473;28;20034;-74
2023/03/08 02:13:03;;;;;;;28.45;18.17;;;3.20;90.20;;;;;;4979178;28;20022;-73
2023/03/08 02:15:29;;;;;;;26.75;16.60;;;3.20;90.10;;;;;;4977306;28;20037;-73
2023/03/08 02:17:55;;;;;;;23.98;15.70;;;3.10;90.10;;;;;;4978939;28;20030;-73
2023/03/08 02:20:27;;;;;;;21.58;14.52;;;3.10;89.90;;;;;;4997170;28;20054;-74
2023/03/08 02:22:53;;;;;;;20.83;13.45;;;3.00;89.90;;;;;;5001376;28;20770;-73
2023/03/08 02:25:20;;;;;;;18.50;10.85;;;3.10;89.80;;;;;;5002015;28;20044;-73
2023/03/08 02:27:46;;;;;;;16.17;9.93;;;2.90;89.50;;;;;;4985359;28;20070;-73
2023/03/08 02:30:21;;;;;;;17.95;10.55;;;2.90;89.40;;;;;;4977616;28;20033;-73
2023/03/08 02:32:47;;;;;;;17.23;11.07;;;3.00;89.40;;;;;;5002607;28;20103;-73
2023/03/08 02:35:12;;;;;;;16.52;9.45;;;2.90;89.40;;;;;;5001129;28;20474;-73
2023/03/08 02:37:38;;;;;;;14.60;9.23;;;2.80;89.20;;;;;;4997702;28;20543;-73
2023/03/08 02:40:04;;;;;;;18.13;9.90;;;2.90;89.20;;;;;;4996772;28;20034;-74
2023/03/08 02:42:30;;;;;;;15.00;9.52;;;2.80;89.20;;;;;;4998779;28;20026;-73
2023/03/08 02:44:55;;;;;;;14.18;9.25;;;2.80;89.20;;;;;;5003941;28;20811;-74
2023/03/08 02:47:21;;;;;;;14.85;9.30;;;2.80;89.20;;;;;;5001017;28;20646;-74
2023/03/08 02:49:47;;;;;;;15.32;9.32;;;2.70;89.00;;;;;;5003257;28;20033;-74
2023/03/08 02:52:12;;;;;;;16.20;9.57;;;2.60;89.20;;;;;;5000554;28;20034;-73
2023/03/08 02:54:38;;;;;;;16.10;9.75;;;2.70;89.30;;;;;;4999948;28;20476;-73
2023/03/08 02:57:04;;;;;;;15.32;8.77;;;2.60;89.40;;;;;;4996522;28;20583;-73
2023/03/08 02:59:29;;;;;;;15.27;8.98;;;2.70;89.40;;;;;;4998043;28;20463;-74
2023/03/08 03:01:56;;;;;;;16.55;9.57;;;2.70;89.40;;;;;;4999932;28;20479;-73
2023/03/08 03:04:22;;;;;;;14.75;9.00;;;2.70;89.20;;;;;;4997075;28;20374;-73
2023/03/08 03:06:48;;;;;;;14.68;9.10;;;2.60;89.30;;;;;;5001479;28;20029;-73
2023/03/08 03:09:13;;;;;;;12.52;8.40;;;2.60;89.20;;;;;;5019540;28;20422;-73
2023/03/08 03:11:39;;;;;;;13.82;8.32;;;2.60;89.10;;;;;;5006621;28;20493;-73
2023/03/08 03:14:05;;;;;;;13.73;8.90;;;2.60;89.20;;;;;;4996125;28;20032;-73
2023/03/08 03:16:31;;;;;;;15.60;8.70;;;2.60;89.40;;;;;;5000850;28;20042;-74
2023/03/08 03:18:57;;;;;;;14.20;9.05;;;2.50;89.30;;;;;;5002306;28;20455;-73
2023/03/08 03:21:23;;;;;;;14.13;8.52;;;2.50;89.40;;;;;;4999676;28;20085;-74
2023/03/08 03:23:49;;;;;;;14.57;9.00;;;2.40;89.50;;;;;;5005245;28;20033;-74
2023/03/08 03:26:20;;;;;;;14.40;8.45;;;2.40;89.50;;;;;;4995377;28;20052;-74
2023/03/08 03:28:46;;;;;;;14.73;8.77;;;2.40;89.50;;;;;;4994669;28;20030;-74
2023/03/08 03:31:17;;;;;;;14.98;9.23;;;2.40;89.60;;;;;;4992315;28;20892;-74
2023/03/08 03:33:44;;;;;;;15.50;9.10;;;2.30;89.50;;;;;;4988379;28;20117;-73
2023/03/08 03:36:13;;;;;;;12.27;7.78;;;2.20;89.50;;;;;;4994414;28;20044;-74
2023/03/08 03:38:40;;;;;;;12.45;7.35;;;2.20;89.50;;;;;;4989654;28;20037;-74
2023/03/08 03:41:18;;;;;;;15.60;8.13;;;2.20;89.60;;;;;;4995777;28;20034;-74
2023/03/08 03:43:44;;;;;;;13.85;8.43;;;2.20;89.70;;;;;;4994718;28;20025;-74
2023/03/08 03:46:13;;;;;;;14.07;8.07;;;2.20;89.70;;;;;;4998766;28;20485;-74
2023/03/08 03:48:38;;;;;;;13.90;7.75;;;2.20;89.70;;;;;;4999661;28;20503;-74
2023/03/08 03:51:14;;;;;;;13.73;7.97;;;2.10;89.90;;;;;;4996234;28;20030;-74
2023/03/08 03:53:40;;;;;;;13.35;7.93;;;2.10;89.90;;;;;;5001352;28;20026;-73
2023/03/08 03:56:09;;;;;;;14.52;8.15;;;2.10;89.90;;;;;;4996626;28;20491;-74
2023/03/08 03:58:35;;;;;;;15.48;8.75;;;2.10;90.00;;;;;;4996756;28;20585;-74
2023/03/08 04:01:09;;;;;;;13.32;7.88;;;2.00;90.00;;;;;;4993216;28;20130;-73
2023/03/08 04:03:35;;;;;;;14.73;8.85;;;2.00;90.30;;;;;;4998464;28;20018;-73
2023/03/08 04:06:15;;;;;;;15.05;8.95;;;2.00;90.10;;;;;;5000275;28;20910;-74
2023/03/08 04:08:41;;;;;;;13.38;8.70;;;1.90;90.30;;;;;;4990991;28;20032;-73
2023/03/08 04:11:09;;;;;;;14.43;8.60;;;1.90;90.30;;;;;;4993799;28;20038;-73
2023/03/08 04:13:36;;;;;;;15.63;9.10;;;1.90;90.30;;;;;;4996246;28;20033;-73
2023/03/08 04:16:11;;;;;;;16.45;9.90;;;1.90;90.40;;;;;;5002383;28;20568;-73
2023/03/08 04:18:37;;;;;;;15.52;9.20;;;1.90;90.50;;;;;;4996990;28;20033;-73
2023/03/08 04:21:03;;;;;;;15.25;9.38;;;1.90;90.50;;;;;;4988630;28;20034;-73
2023/03/08 04:23:29;;;;;;;16.98;9.70;;;1.90;90.50;;;;;;4995649;28;20030;-74
2023/03/08 04:25:55;;;;;;;16.38;9.90;;;1.90;90.50;;;;;;4994680;28;20054;-73
2023/03/08 04:28:20;;;;;;;15.32;9.45;;;1.80;90.70;;;;;;5000691;28;20443;-74
2023/03/08 04:30:46;;;;;;;17.10;9.43;;;1.80;90.80;;;;;;5002534;28;20044;-74
2023/03/08 04:33:12;;;;;;;15.50;9.38;;;1.80;90.80;;;;;;4988580;28;20423;-73
2023/03/08 04:35:37;;;;;;;13.55;8.82;;;1.80;90.80;;;;;;4982911;28;20369;-73
2023/03/08 04:38:03;;;;;;;15.70;9.80;;;1.80;90.90;;;;;;4995905;28;20107;-74
2023/03/08 04:40:28;;;;;;;14.43;8.82;;;1.80;90.90;;;;;;4999982;28;20578;-74
2023/03/08 04:42:55;;;;;;;17.00;9.50;;;1.80;90.90;;;;;;5003240;28;20422;-74
2023/03/08 04:45:20;;;;;;;14.30;9.00;;;1.70;90.90;;;;;;5002659;28;20033;-74
2023/03/08 04:47:46;;;;;;;17.05;9.90;;;1.70;90.90;;;;;;5002468;28;20042;-74
2023/03/08 04:50:12;;;;;;;15.45;9.70;;;1.70;90.90;;;;;;5001887;28;20034;-75
2023/03/08 04:52:38;;;;;;;17.40;10.43;;;1.60;91.00;;;;;;5002118;28;20072;-74
2023/03/08 04:55:04;;;;;;;18.25;11.02;;;1.60;91.20;;;;;;4997519;28;20030;-74
2023/03/08 04:57:30;;;;;;;17.48;11.68;;;1.60;91.20;;;;;;4990730;28;20057;-74
2023/03/08 04:59:55;;;;;;;17.67;11.38;;;1.60;91.30;;;;;;4996354;28;20023;-74
2023/03/08 05:02:22;;;;;;;17.38;11.23;;;1.70;91.30;;;;;;4996425;28;20184;-74
2023/03/08 05:04:48;;;;;;;17.08;11.93;;;1.60;91.40;;;;;;5003238;28;20045;-74
2023/03/08 05:07:14;;;;;;;21.98;14.30;;;1.60;91.40;;;;;;4996131;28;20030;-74
2023/03/08 05:09:40;;;;;;;18.80;12.50;;;1.60;91.50;;;;;;4999420;28;20033;-74
2023/03/08 05:12:06;;;;;;;19.23;12.85;;;1.60;91.40;;;;;;4997929;28;20565;-74
2023/03/08 05:14:32;;;;;;;17.08;11.32;;;1.60;91.40;;;;;;4996840;28;20121;-73
2023/03/08 05:16:57;;;;;;;18.92;12.23;;;1.60;91.40;;;;;;4993826;28;20641;-73
2023/03/08 05:19:23;;;;;;;17.67;11.38;;;1.60;91.50;;;;;;4996909;28;20363;-74
2023/03/08 05:21:49;;;;;;;15.20;11.45;;;1.60;91.50;;;;;;4998321;28;20046;-74
2023/03/08 05:24:15;;;;;;;17.30;11.95;;;1.60;91.50;;;;;;5000840;28;20098;-74
2023/03/08 05:26:40;;;;;;;17.05;11.00;;;1.60;91.60;;;;;;4997904;28;20045;-74
2023/03/08 05:29:06;;;;;;;17.17;11.05;;;1.60;91.70;;;;;;4999827;28;20057;-74
2023/03/08 05:31:32;;;;;;;18.38;11.60;;;1.60;91.70;;;;;;4988595;28;20034;-74
2023/03/08 05:33:58;;;;;;;15.25;10.80;;;1.60;91.70;;;;;;4999095;28;20022;-74
2023/03/08 05:36:24;;;;;;;17.10;10.98;;;1.60;91.70;;;;;;5001951;28;20120;-74
2023/03/08 05:38:54;;;;;;;15.52;10.90;;;1.60;91.70;;;;;;4997323;28;20037;-74
2023/03/08 05:41:20;;;;;;;17.23;11.02;;;1.60;91.60;;;;;;4995155;28;20046;-74
2023/03/08 05:43:46;;;;;;;15.88;11.30;;;1.60;91.70;;;;;;4991826;28;20040;-74
2023/03/08 05:46:17;;;;;;;16.45;10.85;;;1.60;91.70;;;;;;4991326;28;20089;-74
2023/03/08 05:48:43;;;;;;;16.85;10.77;;;1.60;91.70;;;;;;4992351;28;20135;-76
2023/03/08 05:51:12;;;;;;;16.35;11.02;;;1.60;91.70;;;;;;4989928;28;20447;-73
2023/03/08 05:53:38;;;;;;;16.67;11.68;;;1.60;91.70;;;;;;4992780;28;20023;-74
2023/03/08 05:56:15;;;;;;;20.73;14.55;;;1.60;91.70;;;;;;4995296;28;20042;-76
2023/03/08 05:58:41;;;;;;;18.10;11.45;;;1.60;91.70;;;;;;5007118;28;20408;-73
2023/03/08 06:01:19;;;;;;;16.98;10.82;;;1.60;91.60;;;;;;4990156;28;20034;-74
2023/03/08 06:03:46;;;;;;;17.80;11.48;;;1.60;91.70;;;;;;5001052;28;20494;-74
2023/03/08 06:06:12;;;;;;;17.65;11.95;;;1.60;91.80;;;;;;5003925;28;20133;-75
2023/03/08 06:08:38;;;;;;;18.27;11.60;;;1.60;91.70;;;;;;4998829;28;20336;-74
2023/03/08 06:11:03;;;;;;;17.15;11.23;;;1.60;91.70;;;;;;4998931;28;20371;-75
2023/03/08 06:13:29;;;;;;;17.90;12.60;;;1.60;91.70;;;;;;5005391;28;20087;-74
2023/03/08 06:15:57;;;;;;;16.30;11.38;;;1.60;91.80;;;;;;5009935;28;20049;-75
2023/03/08 06:18:23;;;;;;;16.85;11.57;;;1.50;91.70;;;;;;5002317;28;20034;-75
2023/03/08 06:21:00;;;;;;;16.60;11.32;;;1.60;91.80;;;;;;4991208;28;20108;-74
2023/03/08 06:23:28;;;;;;;17.42;11.65;;;1.60;91.70;;;;;;4995569;28;20455;-75
2023/03/08 06:25:54;;;;;;;16.10;11.48;;;1.60;91.80;;;;;;4992583;28;20498;-74
2023/03/08 06:28:19;;;;;;;17.30;11.98;;;1.60;91.80;;;;;;4999940;28;20088;-74
2023/03/08 06:30:49;;;;;;;17.80;12.82;;;1.60;91.80;;;;;;4999559;28;20461;-75
2023/03/08 06:33:19;;;;;;;17.92;12.13;;;1.60;91.80;;;;;;4999801;28;20061;-75
2023/03/08 06:35:57;;;;;;;19.30;13.75;;;1.50;91.80;;;;;;5003318;28;20113;-75
2023/03/08 06:38:22;;;;;;;17.05;11.98;;;1.50;91.90;;;;;;4998693;28;20478;-75
2023/03/08 06:40:48;;;;;;;16.77;11.30;;;1.50;91.90;;;;;;4989773;28;20042;-74
2023/03/08 06:43:14;;;;;;;16.98;11.80;;;1.40;92.00;;;;;;5017525;28;20023;-77
2023/03/08 06:45:40;;;;;;;16.10;11.43;;;1.50;92.00;;;;;;5019693;28;20038;-80
2023/03/08 06:48:06;;;;;;;17.30;11.18;;;1.50;92.00;;;;;;5019525;28;20142;-79
2023/03/08 06:50:32;;;;;;;14.18;10.20;;;1.40;92.10;;;;;;5015946;28;20039;-76
2023/03/08 06:52:57;;;;;;;15.57;10.25;;;1.50;92.20;;;;;;5016917;28;20030;-82
2023/03/08 06:55:23;;;;;;;15.32;9.65;;;1.50;92.10;;;;;;5018321;28;20038;-79
2023/03/08 06:57:49;;;;;;;14.75;9.90;;;1.50;92.10;;;;;;5017659;28;20108;-79
2023/03/08 07:00:15;;;;;;;16.20;10.55;;;1.50;92.10;;;;;;4994268;28;20018;-79
2023/03/08 07:02:41;;;;;;;15.95;10.23;;;1.50;92.00;;;;;;5000469;28;20054;-79
2023/03/08 07:05:07;;;;;;;12.23;8.30;;;1.50;92.10;;;;;;5005048;28;20446;-80
2023/03/08 07:07:34;;;;;;;12.50;9.18;;;1.50;92.10;;;;;;5007258;28;20532;-79
2023/03/08 07:10:00;;;;;;;12.40;8.43;;;1.50;92.10;;;;;;5009285;28;20067;-78
2023/03/08 07:12:25;;;;;;;13.50;9.15;;;1.60;92.20;;;;;;5008412;28;20092;-81
2023/03/08 07:14:52;;;;;;;12.07;8.57;;;1.60;92.20;;;;;;5007058;28;20356;-78
2023/03/08 07:17:18;;;;;;;18.65;13.38;;;1.60;92.10;;;;;;4995995;28;20041;-78
2023/03/08 07:19:44;;;;;;;20.27;14.80;;;1.80;92.00;;;;;;5000292;28;20022;-77
2023/03/08 07:22:11;;;;;;;14.68;9.73;;;1.80;91.90;;;;;;4988862;28;20088;-78
2023/03/08 07:24:38;;;;;;;14.48;9.10;;;1.80;91.60;;;;;;4975211;28;20027;-80
2023/03/08 07:27:04;;;;;;;13.90;9.18;;;1.80;91.50;;;;;;4985301;28;20463;-82
2023/03/08 07:29:30;;;;;;;13.43;8.43;;;1.80;91.40;;;;;;5007477;28;20148;-82
2023/03/08 07:31:55;;;;;;;11.80;8.18;;;1.80;91.20;;;;;;4993468;28;20125;-82
2023/03/08 07:34:21;;;;;;;13.88;8.65;;;1.80;91.20;;;;;;5000255;28;20030;-83
2023/03/08 07:36:49;;;;;;;12.63;8.60;;;1.80;91.20;;;;;;4991159;28;20549;-81
2023/03/08 07:39:15;;;;;;;13.25;8.13;;;1.80;91.10;;;;;;4980936;28;20150;-82
2023/03/08 07:41:41;;;;;;;12.85;8.60;;;1.80;91.10;;;;;;4983227;28;20050;-79
2023/03/08 07:44:07;;;;;;;12.13;8.65;;;1.90;91.10;;;;;;4994175;28;20030;-81
2023/03/08 07:46:33;;;;;;;11.77;8.25;;;1.70;90.90;;;;;;4996039;28;20058;-81
2023/03/08 07:48:59;;;;;;;14.10;8.85;;;1.70;91.10;;;;;;4990753;28;20029;-78
2023/03/08 07:51:25;;;;;;;13.00;9.43;;;1.70;91.10;;;;;;5005319;28;20065;-81
2023/03/08 07:53:52;;;;;;;13.63;9.35;;;1.60;91.00;;;;;;4993750;28;20298;-80
2023/03/08 07:56:17;;;;;;;13.38;9.00;;;1.60;91.20;;;;;;4991414;28;20046;-78
2023/03/08 07:58:43;;;;;;;13.25;9.35;;;1.70;91.30;;;;;;4993574;28;20041;-82
2023/03/08 08:01:11;;;;;;;12.88;8.80;;;1.60;91.30;;;;;;4993054;28;20561;-81
2023/03/08 08:03:37;;;;;;;13.13;8.70;;;1.60;91.40;;;;;;4992781;28;20037;-80
2023/03/08 08:06:06;;;;;;;14.15;8.57;;;1.60;91.40;;;;;;4990250;28;20045;-82
2023/03/08 08:08:32;;;;;;;13.05;9.15;;;1.60;91.40;;;;;;4990175;28;20034;-81
2023/03/08 08:10:58;;;;;;;12.23;8.77;;;1.60;91.60;;;;;;4992150;28;20080;-81
2023/03/08 08:13:24;;;;;;;12.48;8.55;;;1.70;91.50;;;;;;4990387;28;20022;-78
2023/03/08 08:15:58;;;;;;;13.00;9.15;;;1.70;91.50;;;;;;4994876;28;20084;-81
2023/03/08 08:18:25;;;;;;;12.52;9.35;;;1.80;91.50;;;;;;4990797;28;20073;-82
2023/03/08 08:20:59;;;;;;;12.73;8.60;;;1.90;91.40;;;;;;4993927;28;20137;-78
2023/03/08 08:23:25;;;;;;;13.20;8.85;;;1.80;91.10;;;;;;4991581;28;20152;-81
2023/03/08 08:25:50;;;;;;;13.95;8.65;;;1.70;90.90;;;;;;4993139;28;20034;-79
2023/03/08 08:28:16;;;;;;;13.60;9.35;;;1.80;91.20;;;;;;4993053;28;20044;-81
2023/03/08 08:30:42;;;;;;;14.57;9.50;;;1.80;91.10;;;;;;4994139;28;20064;-78
2023/03/08 08:33:08;;;;;;;12.10;8.10;;;1.80;91.20;;;;;;4995181;28;20462;-81
2023/03/08 08:35:33;;;;;;;14.05;9.80;;;1.90;91.20;;;;;;4994877;28;20076;-80
2023/03/08 08:38:00;;;;;;;14.43;9.75;;;1.90;91.00;;;;;;4991664;28;20056;-80
2023/03/08 08:40:26;;;;;;;13.50;9.68;;;2.00;90.80;;;;;;4993220;28;20527;-79
2023/03/08 08:42:52;;;;;;;13.07;9.23;;;2.10;90.70;;;;;;4994663;28;20068;-82
2023/03/08 08:45:18;;;;;;;13.85;9.68;;;2.10;90.50;;;;;;4990299;28;20124;-82
2023/03/08 08:47:44;;;;;;;14.35;10.45;;;2.10;90.60;;;;;;4999749;28;20340;-82
2023/03/08 08:50:10;;;;;;;14.40;10.48;;;2.10;90.30;;;;;;4997724;28;20030;-81
2023/03/08 08:52:36;;;;;;;14.10;10.43;;;2.10;90.20;;;;;;5000112;28;20519;-81
2023/03/08 08:55:02;;;;;;;14.60;10.80;;;2.00;90.30;;;;;;4997817;28;20049;-78
2023/03/08 08:57:28;;;;;;;14.88;11.07;;;2.00;90.40;;;;;;4994946;28;20410;-80
2023/03/08 08:59:54;;;;;;;14.85;11.70;;;2.10;90.50;;;;;;4993277;28;20402;-80
2023/03/08 09:02:23;;;;;;;16.13;11.07;;;2.20;90.30;;;;;;4994838;28;20061;-79
2023/03/08 09:04:49;;;;;;;14.80;10.52;;;2.10;90.00;;;;;;4998824;28;20022;-80
2023/03/08 09:07:14;;;;;;;14.40;11.32;;;2.10;90.20;;;;;;5011884;28;20691;-81
2023/03/08 09:09:40;;;;;;;14.80;10.73;;;2.20;89.80;;;;;;4995743;28;20358;-78
2023/03/08 09:12:06;;;;;;;15.50;11.00;;;2.30;89.90;;;;;;4998035;28;20137;-80
2023/03/08 09:14:33;;;;;;;14.40;10.90;;;2.20;89.60;;;;;;4996986;28;20049;-80
2023/03/08 09:16:59;;;;;;;15.27;11.05;;;2.30;89.70;;;;;;4996374;28;20050;-80
2023/03/08 09:19:24;;;;;;;14.68;10.75;;;2.20;89.50;;;;;;4996777;28;20124;-78
2023/03/08 09:21:50;;;;;;;15.18;11.13;;;2.40;89.80;;;;;;4995275;28;20127;-79
2023/03/08 09:24:16;;;;;;;16.88;12.02;;;2.50;89.80;;;;;;4993843;28;20045;-79
2023/03/08 09:26:41;;;;;;;15.63;11.48;;;2.50;89.30;;;;;;4998268;28;20200;-79
2023/03/08 09:29:07;;;;;;;15.18;10.88;;;2.60;89.20;;;;;;4999295;28;20078;-82
2023/03/08 09:31:36;;;;;;;17.50;12.23;;;2.60;88.90;;;;;;4996235;28;20069;-82
2023/03/08 09:34:04;;;;;;;16.10;11.40;;;2.60;88.80;;;;;;4997036;28;20037;-80
2023/03/08 09:36:29;;;;;;;16.15;10.48;;;2.60;89.10;;;;;;4993638;28;20148;-81
2023/03/08 09:38:55;;;;;;;17.42;10.70;;;2.70;88.80;;;;;;4995285;28;20072;-81
2023/03/08 09:41:29;;;;;;;17.27;11.35;;;2.70;88.70;;;;;;4995265;28;20037;-80
2023/03/08 09:44:42;;;;;;;15.63;11.93;;;2.80;88.50;;;;;;4998934;28;20026;-79
2023/03/08 09:47:29;;;;;;;14.90;10.85;;;2.90;88.10;;;;;;4994677;28;20552;-80
2023/03/08 09:50:06;;;;;;;14.43;10.55;;;3.10;88.20;;;;;;4998892;28;20065;-79
2023/03/08 09:52:56;;;;;;;14.25;10.60;;;3.00;87.70;;;;;;5001978;28;20034;-81
2023/03/08 09:55:31;;;;;;;13.55;10.10;;;3.00;87.70;;;;;;4998740;28;20026;-81
2023/03/08 09:58:04;;;;;;;13.63;10.45;;;3.00;87.80;;;;;;5002238;28;20096;-81
2023/03/08 10:00:36;;;;;;;13.48;10.60;;;3.20;87.90;;;;;;5002748;28;20048;-80
2023/03/08 10:03:29;;;;;;;12.82;10.10;;;3.20;87.50;;;;;;4993555;28;20485;-79
2023/03/08 10:06:16;;;;;;;16.08;9.88;;;3.30;87.40;;;;;;4992072;28;20149;-77
2023/03/08 10:08:52;;;;;;;13.52;9.40;;;3.20;86.90;;;;;;4992910;28;20019;-82
2023/03/08 10:11:24;;;;;;;13.00;10.07;;;3.20;86.60;;;;;;4998347;28;20030;-82
2023/03/08 10:13:53;;;;;;;12.77;9.43;;;3.20;87.40;;;;;;5000036;28;20010;-76
2023/03/08 10:16:24;;;;;;;13.18;10.50;;;3.30;87.00;;;;;;5002472;28;20026;-82
2023/03/08 10:18:53;;;;;;;12.95;10.27;;;3.40;87.20;;;;;;4986341;28;20080;-81
2023/03/08 10:21:22;;;;;;;12.80;9.90;;;3.50;86.80;;;;;;4982770;28;20387;-83
2023/03/08 10:24:01;;;;;;;12.25;9.40;;;3.50;86.70;;;;;;4976302;28;20085;-82
2023/03/08 10:26:27;;;;;;;12.68;9.68;;;3.40;86.60;;;;;;4976997;28;20120;-80
2023/03/08 10:28:53;;;;;;;12.63;9.25;;;3.30;86.80;;;;;;4978074;28;20026;-83
2023/03/08 10:31:23;;;;;;;13.15;9.52;;;3.30;87.00;;;;;;4981722;28;20038;-80
2023/03/08 10:34:11;;;;;;;13.05;10.25;;;3.20;86.40;;;;;;4997341;28;20052;-79
2023/03/08 10:36:56;;;;;;;13.68;9.82;;;3.20;87.40;;;;;;4995924;28;20042;-82
2023/03/08 10:39:22;;;;;;;12.77;9.77;;;3.20;87.70;;;;;;4997681;28;20026;-80
2023/03/08 10:41:55;;;;;;;13.23;9.40;;;3.30;87.90;;;;;;4988526;28;20049;-85
2023/03/08 10:44:42;;;;;;;14.77;9.70;;;3.20;87.40;;;;;;4990527;28;20296;-78
2023/03/08 10:47:26;;;;;;;15.20;10.15;;;3.10;87.80;;;;;;4995513;28;20099;-82
2023/03/08 10:50:09;;;;;;;19.25;14.25;;;3.30;87.90;;;;;;5005169;28;20030;-78
2023/03/08 10:52:35;;;;;;;19.95;10.75;;;3.40;87.30;;;;;;4995933;28;20406;-82
2023/03/08 10:57:55;;;;;;;15.25;11.15;;;3.30;87.50;;;;;;5083338;27;20405;-84
2023/03/08 11:00:24;;;;;;;16.55;11.32;;;3.40;88.10;;;;;;5066868;28;20196;-86
2023/03/08 11:03:00;;;;;;;13.65;9.23;;;3.70;88.00;;;;;;5042619;28;20532;-85
2023/03/08 11:05:26;;;;;;;15.63;11.43;;;3.60;87.00;;;;;;5063255;28;20064;-84
2023/03/08 11:07:55;;;;;;;14.77;10.23;;;3.60;86.60;;;;;;5049186;28;20106;-85
2023/03/08 11:10:23;;;;;;;15.30;10.02;;;3.40;86.90;;;;;;5042716;28;20018;-86
2023/03/08 11:13:12;;;;;;;14.00;10.10;;;3.20;87.00;;;;;;5048539;28;20021;-83
2023/03/08 11:15:41;;;;;;;17.73;12.73;;;3.10;87.50;;;;;;5048465;27;20025;-85
2023/03/08 11:18:39;;;;;;;16.85;13.70;;;3.20;88.00;;;;;;5038732;28;20469;-85
2023/03/08 11:21:23;;;;;;;15.55;11.18;;;3.30;88.20;;;;;;5064399;28;20038;-85
2023/03/08 11:23:53;;;;;;;13.55;10.40;;;3.40;88.30;;;;;;5037380;28;20029;-85
2023/03/08 11:26:28;;;;;;;15.32;11.40;;;3.50;88.20;;;;;;5033572;28;20037;-85
2023/03/08 11:29:11;;;;;;;14.27;10.70;;;3.60;87.90;;;;;;5050357;28;20025;-85
2023/03/08 11:31:52;;;;;;;15.02;10.45;;;3.70;87.40;;;;;;5042681;28;20049;-85
2023/03/08 11:34:45;;;;;;;15.05;11.18;;;3.70;87.40;;;;;;5052817;28;20043;-84
2023/03/08 11:37:17;;;;;;;16.17;11.60;;;3.90;87.40;;;;;;5056375;28;20552;-84
2023/03/08 11:40:10;;;;;;;16.00;11.48;;;4.00;86.80;;;;;;5062106;28;20488;-85
2023/03/08 11:43:01;;;;;;;16.27;11.73;;;3.90;86.80;;;;;;5053890;28;20045;-83
2023/03/08 11:45:48;;;;;;;18.63;13.73;;;3.90;86.40;;;;;;5055746;28;20029;-84
2023/03/08 11:48:23;;;;;;;32.15;25.15;;;3.90;86.80;;;;;;5053354;28;20040;-85
2023/03/08 11:50:57;;;;;;;25.45;21.38;;;3.90;86.50;;;;;;5051730;28;20036;-84
2023/03/08 11:53:42;;;;;;;16.00;12.88;;;3.90;86.30;;;;;;5080378;28;20021;-85
2023/03/08 11:56:38;;;;;;;15.88;12.57;;;4.00;86.50;;;;;;5080680;27;20048;-85
2023/03/08 11:59:25;;;;;;;18.08;12.20;;;4.10;86.60;;;;;;5073623;28;20039;-86
2023/03/08 12:02:12;;;;;;;16.33;12.27;;;3.90;85.80;;;;;;5075305;28;20571;-87
2023/03/08 12:04:56;;;;;;;17.65;13.88;;;3.90;86.60;;;;;;5072631;28;20022;-85
2023/03/08 12:07:34;;;;;;;16.40;13.48;;;3.80;86.70;;;;;;5072853;28;20460;-87
2023/03/08 12:10:18;;;;;;;18.38;14.55;;;3.90;86.80;;;;;;5064119;28;20509;-85
2023/03/08 12:12:53;;;;;;;18.55;14.05;;;3.90;87.10;;;;;;5060895;28;20029;-85
2023/03/08 12:15:37;;;;;;;17.90;13.18;;;4.00;87.10;;;;;;5062123;28;20016;-85
2023/03/08 12:18:35;;;;;;;22.70;18.50;;;3.90;86.60;;;;;;5060421;28;20153;-85
2023/03/08 12:21:07;;;;;;;17.75;14.45;;;3.80;87.20;;;;;;5058630;28;20044;-86
2023/03/08 12:23:47;;;;;;;19.38;14.95;;;3.70;87.10;;;;;;5061226;28;20056;-85
2023/03/08 12:26:25;;;;;;;20.35;15.48;;;3.60;87.60;;;;;;5059364;28;20487;-85
2023/03/08 12:29:10;;;;;;;22.95;17.98;;;3.60;88.00;;;;;;5056768;28;20071;-86
2023/03/08 12:31:39;;;;;;;;;;;3.80;88.20;;;;;;5056746;28;20347;-86
2023/03/08 12:34:26;;;;;;;21.67;16.65;;;3.70;87.80;;;;;;5058352;28;20380;-85
2023/03/08 12:36:52;;;;;;;22.15;17.73;;;3.80;88.00;;;;;;5059041;28;20065;-85
2023/03/08 12:39:33;;;;;;;22.65;18.58;;;3.80;87.70;;;;;;5063240;28;20017;-84
2023/03/08 12:42:12;;;;;;;24.40;20.70;;;3.90;87.50;;;;;;5059307;28;20132;-85
2023/03/08 12:44:38;;;;;;;20.92;16.73;;;3.90;87.50;;;;;;5061563;28;20120;-85
2023/03/08 12:47:10;;;;;;;30.95;24.70;;;3.90;87.40;;;;;;5058022;28;20292;-84
2023/03/08 12:49:39;;;;;;;24.23;19.58;;;3.80;87.50;;;;;;5066791;28;20048;-85
2023/03/08 12:52:17;;;;;;;21.85;17.27;;;3.80;87.70;;;;;;5062368;28;20472;-85
2023/03/08 12:54:54;;;;;;;21.40;16.63;;;3.80;87.60;;;;;;5059601;28;20036;-86